Time;durP1;ratioP1;P1;durP2;ratioP2;P2;SDS_P1;SDS_P2;PMS_P1;PMS_P2;Temp;Humidity;BMP_temperature;BMP_pressure;BME280_temperature;BME280_humidity;BME280_pressure;Samples;Min_cycle;Max_cycle;Signal;HPM_P1;HPM_P2
2022/05/14 00:06:51;;;;;;;12.30;8.00;;;;;;;23.97;37.75;100258.38;104820;1308;74711;31
2022/05/14 00:10:02;;;;;;;12.40;7.60;;;;;;;23.90;37.62;100259.71;104792;1310;83557;-90
2022/05/14 00:15:55;;;;;;;13.30;8.20;;;;;;;23.95;37.82;100257.42;104655;1307;65569;-91
2022/05/14 00:21:56;;;;;;;11.80;7.60;;;;;;;23.92;37.61;100257.00;104773;1308;74874;-90
2022/05/14 00:27:40;;;;;;;13.70;7.90;;;;;;;23.93;37.85;100250.36;104396;1310;73569;-90
2022/05/14 00:33:37;;;;;;;16.40;8.10;;;;;;;23.94;37.64;100250.80;104394;1310;68581;31
2022/05/14 00:39:18;;;;;;;11.50;7.70;;;;;;;23.95;37.65;100244.92;104785;1310;83403;-91
2022/05/14 00:42:54;;;;;;;13.40;8.10;;;;;;;23.98;37.65;100253.44;104785;1310;73992;-91
2022/05/14 00:48:46;;;;;;;13.90;7.40;;;;;;;23.90;37.85;100239.51;104754;1307;66060;-91
2022/05/14 00:54:35;;;;;;;11.00;7.00;;;;;;;23.98;37.60;100225.02;104692;1310;83287;31
2022/05/14 01:00:37;;;;;;;12.20;6.70;;;;;;;23.91;37.98;100226.65;104659;1310;65997;-91
2022/05/14 01:06:15;;;;;;;10.10;6.80;;;;;;;23.94;38.07;100238.02;104640;1310;73207;31
2022/05/14 01:08:41;;;;;;;7.90;6.20;;;;;;;23.97;38.10;100238.13;104399;1318;81830;-88
2022/05/14 01:11:07;;;;;;;8.00;6.20;;;;;;;23.94;38.04;100238.27;104189;1313;66398;-88
2022/05/14 01:13:32;;;;;;;9.10;6.00;;;;;;;23.88;38.04;100235.90;104164;1313;65593;-88
2022/05/14 01:16:00;;;;;;;8.90;5.70;;;;;;;23.88;38.15;100231.42;104253;1313;66269;-89
2022/05/14 01:18:27;;;;;;;9.20;5.50;;;;;;;23.92;38.27;100232.65;104108;1311;66216;-89
2022/05/14 01:26:27;;;;;;;7.30;5.50;;;;;;;23.93;38.16;100229.02;104436;1319;73300;-88
2022/05/14 01:26:40;;;;;;;8.10;5.60;;;;;;;23.88;38.52;100230.09;93816;1310;170160;-88
2022/05/14 01:29:13;;;;;;;6.90;5.20;;;;;;;23.90;38.71;100225.80;104332;1313;66198;-88
2022/05/14 01:31:39;;;;;;;8.00;5.50;;;;;;;23.91;38.50;100220.48;104617;1319;66147;-88
2022/05/14 01:34:09;;;;;;;6.70;5.10;;;;;;;23.92;38.62;100222.33;104113;1313;66216;-88
2022/05/14 01:36:49;;;;;;;7.60;4.80;;;;;;;23.92;38.55;100219.64;104089;1313;74019;-91
2022/05/14 01:42:31;;;;;;;9.80;5.20;;;;;;;23.90;38.94;100214.02;104802;1309;66307;-89
2022/05/14 01:48:19;;;;;;;7.70;4.70;;;;;;;23.95;38.82;100207.98;104764;1309;83348;31
2022/05/14 01:54:03;;;;;;;5.50;4.40;;;;;;;23.87;38.94;100213.19;104284;1320;66088;-91
2022/05/14 02:00:02;;;;;;;6.20;4.60;;;;;;;23.91;39.20;100203.48;104784;1310;74508;-91
2022/05/14 02:08:26;;;;;;;8.10;4.40;;;;;;;23.86;39.30;100191.27;104824;1310;68429;-91
2022/05/14 02:14:04;;;;;;;8.80;4.40;;;;;;;23.93;39.29;100192.25;104770;1309;74194;-91
2022/05/14 02:20:13;;;;;;;4.90;3.80;;;;;;;23.85;39.48;100191.02;104669;1310;73740;-91
2022/05/14 02:25:49;;;;;;;7.90;3.80;;;;;;;23.92;39.60;100189.80;104715;1310;67937;-90
2022/05/14 02:31:27;;;;;;;6.70;3.80;;;;;;;23.94;39.67;100187.24;104699;1309;83204;-91
2022/05/14 02:34:18;;;;;;;7.00;3.90;;;;;;;23.95;39.63;100183.78;104689;1310;73325;-91
2022/05/14 02:37:07;;;;;;;5.90;3.90;;;;;;;23.95;39.72;100188.77;104494;1310;66383;-91
2022/05/14 02:42:57;;;;;;;5.80;4.00;;;;;;;23.96;39.80;100204.98;104760;1310;74154;-91
2022/05/14 02:48:36;;;;;;;7.30;4.00;;;;;;;23.94;39.73;100216.74;104754;1309;73464;-91
2022/05/14 02:54:27;;;;;;;7.80;4.10;;;;;;;23.78;39.79;100230.70;104832;1308;66743;31
2022/05/14 03:00:12;;;;;;;5.10;3.80;;;;;;;23.81;40.19;100227.95;104680;1310;82836;-90
2022/05/14 03:11:27;;;;;;;9.90;4.00;;;;;;;23.85;40.29;100223.30;90232;1310;169256;-91
2022/05/14 03:21:01;;;;;;;5.30;3.60;;;;;;;23.79;40.27;100227.35;104767;1309;66157;-91
2022/05/14 03:33:49;;;;;;;5.20;3.80;;;;;;;23.77;40.46;100251.73;104687;1307;71531;-91
2022/05/14 03:39:47;;;;;;;8.30;3.80;;;;;;;23.82;40.58;100247.55;104731;1309;66227;-92
2022/05/14 03:45:42;;;;;;;6.50;3.80;;;;;;;23.82;40.55;100250.94;104777;1307;83022;-90
2022/05/14 03:51:18;;;;;;;6.50;3.50;;;;;;;23.82;40.73;100256.02;104738;1310;68006;-91
2022/05/14 04:00:19;;;;;;;5.70;3.70;;;;;;;23.80;40.93;100275.58;101169;1308;81426;-90
2022/05/14 04:03:28;;;;;;;7.30;3.80;;;;;;;23.78;40.87;100275.96;104745;1310;73761;-92
2022/05/14 04:06:37;;;;;;;6.30;3.70;;;;;;;23.82;40.93;100277.56;104760;1308;66232;-91
2022/05/14 04:12:35;;;;;;;4.90;3.80;;;;;;;23.83;40.89;100278.39;104796;1307;74476;-92
2022/05/14 04:18:20;;;;;;;6.50;3.90;;;;;;;23.80;41.00;100279.33;104953;1307;73374;-90
2022/05/14 04:26:55;;;;;;;6.40;3.70;;;;;;;23.80;40.91;100299.00;102735;1307;72629;-91
2022/05/14 04:32:29;;;;;;;7.60;4.00;;;;;;;23.83;41.15;100303.98;104731;1311;73326;-91
2022/05/14 04:35:43;;;;;;;7.40;4.20;;;;;;;23.85;41.22;100308.27;104743;1310;65531;-90
2022/05/14 04:38:47;;;;;;;6.60;3.80;;;;;;;23.82;41.02;100316.95;104735;1308;66174;-91
2022/05/14 04:44:44;;;;;;;5.60;3.90;;;;;;;23.82;41.17;100321.85;104098;1307;83313;31
2022/05/14 04:53:42;;;;;;;6.00;4.00;;;;;;;23.80;41.24;100328.60;104529;1310;68454;31
2022/05/14 04:56:57;;;;;;;8.20;4.00;;;;;;;23.83;41.20;100333.55;104734;1309;73974;-91
2022/05/14 05:03:22;;;;;;;6.20;3.50;;;;;;;23.87;41.33;100343.65;104805;1310;73520;-91
2022/05/14 05:06:29;;;;;;;5.10;3.80;;;;;;;23.79;41.36;100350.45;104795;1310;66091;-92
2022/05/14 05:12:28;;;;;;;7.10;3.80;;;;;;;23.85;41.28;100358.21;95599;1309;72829;-91
2022/05/14 05:18:27;;;;;;;5.70;3.90;;;;;;;23.84;41.46;100352.44;104732;1309;159634;-91
2022/05/14 05:24:13;;;;;;;7.20;3.90;;;;;;;23.81;41.61;100352.38;96555;1309;66035;-91
2022/05/14 05:32:56;;;;;;;5.30;3.80;;;;;;;23.87;41.52;100363.42;102118;1309;71397;-91
2022/05/14 05:36:02;;;;;;;5.50;3.80;;;;;;;23.87;41.53;100366.14;104783;1310;66673;-92
2022/05/14 05:41:58;;;;;;;5.40;3.80;;;;;;;23.91;41.48;100355.23;104777;1310;73148;-90
2022/05/14 05:50:48;;;;;;;7.70;4.40;;;;;;;23.85;41.57;100362.33;93906;1310;66224;-91
2022/05/14 05:59:59;;;;;;;5.70;4.20;;;;;;;23.81;41.58;100376.58;104742;1309;82249;-91
2022/05/14 06:08:25;;;;;;;6.10;4.40;;;;;;;23.93;41.48;100391.31;99416;1318;65659;-92
2022/05/14 06:14:03;;;;;;;6.30;4.40;;;;;;;23.88;41.46;100395.17;104766;1310;83809;-91
2022/05/14 06:22:37;;;;;;;5.80;4.60;;;;;;;23.91;41.09;100401.98;102645;1317;65680;-91
2022/05/14 06:28:30;;;;;;;6.30;5.00;;;;;;;23.93;41.38;100391.82;104750;1310;83350;-92
2022/05/14 06:34:11;;;;;;;8.80;5.10;;;;;;;23.95;41.24;100394.52;104763;1310;66183;-91
2022/05/14 06:39:52;;;;;;;6.50;5.30;;;;;;;23.92;41.24;100394.61;104806;1310;68424;-91
2022/05/14 06:45:45;;;;;;;9.60;5.60;;;;;;;23.97;41.02;100393.12;104698;1310;73796;-91
2022/05/14 06:51:18;;;;;;;6.90;5.20;;;;;;;23.91;41.13;100390.70;104742;1309;65422;-92
2022/05/14 06:56:52;;;;;;;9.20;5.40;;;;;;;24.01;40.95;100383.67;104657;1310;83345;-91
2022/05/14 07:02:34;;;;;;;7.80;5.20;;;;;;;23.96;40.79;100382.04;104743;1309;65548;-91
2022/05/14 07:11:10;;;;;;;7.70;5.60;;;;;;;24.02;40.71;100388.19;104149;1321;80313;-91
2022/05/14 07:23:26;;;;;;;8.20;5.80;;;;;;;24.06;40.64;100397.04;98032;1308;73894;31
2022/05/14 07:26:40;;;;;;;7.70;5.90;;;;;;;24.05;40.48;100397.50;104762;1307;161214;-90
2022/05/14 07:32:37;;;;;;;7.30;5.90;;;;;;;24.00;40.46;100402.54;104893;1310;67419;-90
2022/05/14 07:41:15;;;;;;;7.10;6.30;;;;;;;24.05;40.26;100405.20;96241;1308;80487;-90
2022/05/14 07:44:26;;;;;;;8.30;6.10;;;;;;;24.03;40.40;100407.80;104690;1310;73862;-91
2022/05/14 07:50:26;;;;;;;7.80;5.80;;;;;;;24.12;40.22;100403.09;104450;1308;66020;-91
2022/05/14 07:56:17;;;;;;;9.90;6.30;;;;;;;24.06;40.05;100404.52;100605;1307;80423;-91
2022/05/14 08:00:11;;;;;;;9.00;6.60;;;;;;;24.09;40.13;100406.42;104582;1307;74110;-91
2022/05/14 08:06:24;;;;;;;9.30;6.40;;;;;;;24.11;40.02;100406.61;104879;1307;67629;-91
2022/05/14 08:12:15;;;;;;;9.30;6.00;;;;;;;24.10;40.16;100407.54;104532;1309;83915;-91
2022/05/14 08:17:45;;;;;;;7.80;6.30;;;;;;;24.16;40.07;100407.98;104697;1310;66583;-92
2022/05/14 08:26:54;;;;;;;8.70;6.00;;;;;;;24.16;40.19;100401.81;104696;1307;83533;-91
2022/05/14 08:29:47;;;;;;;8.20;6.20;;;;;;;24.20;39.97;100403.55;100713;1310;73785;-91
2022/05/14 08:32:48;;;;;;;8.00;6.10;;;;;;;24.22;39.94;100401.66;104517;1313;67693;-91
2022/05/14 08:38:23;;;;;;;8.00;5.90;;;;;;;24.25;39.80;100403.02;104748;1307;74933;-91
2022/05/14 08:44:03;;;;;;;6.80;6.00;;;;;;;24.27;39.89;100408.80;103939;1310;73742;-91
2022/05/14 08:50:09;;;;;;;7.40;6.40;;;;;;;24.23;39.50;100403.72;104737;1311;67526;31
2022/05/14 08:56:48;;;;;;;;;;;;;;;;;;;;;
2022/05/14 09:02:58;;;;;;;9.20;6.10;;;;;;;24.18;39.87;100408.67;104737;1310;67236;-90
2022/05/14 09:06:09;;;;;;;8.60;6.10;;;;;;;24.20;39.83;100410.08;104459;1312;66182;-91
2022/05/14 09:12:06;;;;;;;9.90;6.40;;;;;;;24.13;39.81;100405.86;104587;1310;83210;-92
2022/05/14 09:15:11;;;;;;;12.70;6.90;;;;;;;24.19;39.91;100406.30;104836;1310;73292;-91
2022/05/14 09:24:40;;;;;;;11.60;6.60;;;;;;;24.14;39.95;100405.85;104718;1310;74747;-91
2022/05/14 09:27:40;;;;;;;14.30;6.50;;;;;;;24.19;39.94;100405.73;104644;1310;82995;-91
2022/05/14 09:36:38;;;;;;;7.00;6.20;;;;;;;24.15;39.84;100407.27;98709;1310;65727;-91
2022/05/14 09:39:47;;;;;;;12.60;6.90;;;;;;;24.20;39.90;100409.58;104701;1307;74729;-91
2022/05/14 09:45:39;;;;;;;14.30;6.40;;;;;;;24.26;39.72;100405.77;104701;1310;74614;-91
2022/05/14 09:51:21;;;;;;;;;;;;;;;24.21;39.89;100404.89;104773;1309;69107;-91
2022/05/14 09:57:28;;;;;;;12.00;6.90;;;;;;;24.26;40.03;100404.49;104786;1309;161131;-93
2022/05/14 10:03:10;;;;;;;11.60;6.20;;;;;;;24.19;40.04;100399.98;104560;1310;66687;-91
2022/05/14 10:06:33;;;;;;;11.80;6.50;;;;;;;24.23;40.18;100395.23;104682;1310;66652;-92
2022/05/14 10:12:50;;;;;;;13.60;7.00;;;;;;;24.27;40.13;100399.75;104667;1310;83507;-91
2022/05/14 10:33:50;;;;;;;14.50;6.90;;;;;;;24.30;40.12;100391.12;100677;1310;5516047;-92
2022/05/14 10:40:05;;;;;;;12.20;7.30;;;;;;;24.30;40.04;100386.17;104711;1310;74886;-91
2022/05/14 10:46:04;;;;;;;9.90;7.20;;;;;;;24.28;39.86;100384.89;104520;1307;72680;-91
2022/05/14 10:52:09;;;;;;;;;;;;;;;;;;;;;
2022/05/14 10:57:36;;;;;;;10.20;6.90;;;;;;;24.28;39.92;100378.66;104295;1310;83488;-91
2022/05/14 11:03:14;;;;;;;8.30;6.90;;;;;;;24.36;39.82;100376.58;104565;1310;66035;-91
2022/05/14 11:09:00;;;;;;;10.10;7.10;;;;;;;24.32;39.89;100374.27;104481;1310;74994;-91
2022/05/14 11:12:00;;;;;;;8.70;7.00;;;;;;;24.36;39.73;100369.21;104365;1310;83434;-91
2022/05/14 11:18:24;;;;;;;11.50;7.20;;;;;;;24.40;39.69;100359.66;103827;1311;66268;-91
2022/05/14 11:21:14;;;;;;;10.80;6.60;;;;;;;24.35;39.67;100352.27;104261;1309;65560;-91
2022/05/14 11:24:15;;;;;;;10.40;7.20;;;;;;;24.37;39.74;100355.21;104401;1310;74001;-91
2022/05/14 11:30:03;;;;;;;10.20;7.10;;;;;;;24.44;39.75;100355.05;104713;1309;73825;-90
2022/05/14 11:35:53;;;;;;;10.80;7.40;;;;;;;24.45;39.71;100350.35;104515;1307;66908;-91
2022/05/14 11:41:29;;;;;;;7.90;6.90;;;;;;;24.45;39.68;100351.23;104385;1310;83321;-91
2022/05/14 11:47:01;;;;;;;8.40;7.00;;;;;;;24.44;39.54;100350.63;104352;1310;67544;-91
2022/05/14 11:52:32;;;;;;;10.30;6.40;;;;;;;24.35;39.63;100350.05;103859;1309;75132;-91
2022/05/14 11:58:16;;;;;;;8.50;7.00;;;;;;;24.34;39.90;100345.09;104406;1309;72714;-91
2022/05/14 12:04:12;;;;;;;8.00;6.90;;;;;;;24.43;39.71;100342.01;104344;1310;68063;31
2022/05/14 12:10:18;;;;;;;10.10;6.90;;;;;;;24.39;39.86;100339.04;104759;1310;83771;-89
2022/05/14 12:15:57;;;;;;;9.60;6.70;;;;;;;24.49;39.71;100327.58;104750;1309;65505;31
2022/05/14 12:24:48;;;;;;;9.90;7.50;;;;;;;24.45;39.72;100302.33;104523;1310;83337;-91
2022/05/14 12:33:12;;;;;;;9.60;7.10;;;;;;;24.45;39.65;100297.74;104712;1310;65776;-91
2022/05/14 12:38:43;;;;;;;8.20;6.70;;;;;;;24.46;39.78;100286.46;104530;1310;83360;-91
2022/05/14 12:44:18;;;;;;;12.30;7.00;;;;;;;24.49;39.81;100285.60;104680;1310;67840;-90
2022/05/14 12:46:56;;;;;;;7.70;6.90;;;;;;;24.44;39.67;100278.99;104644;1309;65577;-91
2022/05/14 12:49:35;;;;;;;8.70;6.50;;;;;;;24.42;39.65;100278.83;104512;1310;67923;-91
2022/05/14 12:55:24;;;;;;;11.60;7.10;;;;;;;24.51;39.47;100287.56;104624;1310;73930;-91
2022/05/14 12:58:30;;;;;;;8.80;6.90;;;;;;;24.49;39.56;100279.02;104774;1307;66768;-91
2022/05/14 13:01:28;;;;;;;10.80;6.60;;;;;;;24.41;39.58;100280.85;104231;1310;66012;-91
2022/05/14 13:07:22;;;;;;;10.90;6.80;;;;;;;24.48;39.67;100291.70;104685;1309;83832;-92
2022/05/14 13:13:12;;;;;;;8.50;7.20;;;;;;;24.45;39.54;100289.58;104693;1310;66146;-91
2022/05/14 13:16:13;;;;;;;8.20;7.40;;;;;;;24.41;39.69;100284.35;104601;1310;66235;-92
2022/05/14 13:19:21;;;;;;;9.60;6.80;;;;;;;24.46;39.73;100284.98;104673;1310;73925;-92
2022/05/14 13:25:16;;;;;;;10.50;7.10;;;;;;;24.46;39.49;100283.23;103730;1308;73818;-92
2022/05/14 13:28:26;;;;;;;12.70;7.40;;;;;;;24.41;39.61;100283.27;104716;1310;66199;-91
2022/05/14 13:37:23;;;;;;;7.40;6.50;;;;;;;24.50;39.57;100292.78;104622;1310;81191;-91
2022/05/14 13:43:25;;;;;;;13.30;7.10;;;;;;;24.41;39.73;100297.51;104738;1310;65503;-91
2022/05/14 13:49:16;;;;;;;9.10;7.20;;;;;;;24.48;39.54;100298.80;91591;1310;72787;-91
2022/05/14 13:52:24;;;;;;;9.50;7.20;;;;;;;24.42;39.64;100298.47;102931;1310;83905;-91
2022/05/14 13:58:23;;;;;;;8.90;6.90;;;;;;;24.43;39.63;100291.06;104385;1310;66005;-91
2022/05/14 14:04:08;;;;;;;9.30;7.50;;;;;;;24.48;39.49;100291.10;104684;1310;75243;-91
2022/05/14 14:10:07;;;;;;;10.60;6.90;;;;;;;24.39;39.77;100291.75;104735;1310;73608;-91
2022/05/14 14:16:03;;;;;;;10.70;7.40;;;;;;;24.46;39.54;100287.09;104830;1310;66080;-90
2022/05/14 14:21:47;;;;;;;11.30;7.80;;;;;;;24.39;39.63;100277.70;104574;1310;83688;-90
2022/05/14 14:34:03;;;;;;;9.20;7.30;;;;;;;24.49;39.52;100274.70;103568;1309;177642;31
2022/05/14 14:39:54;;;;;;;9.00;7.50;;;;;;;24.48;39.50;100272.39;104493;1310;74033;-91
2022/05/14 14:45:33;;;;;;;11.10;7.60;;;;;;;24.48;39.45;100255.15;104559;1310;67903;31
2022/05/14 14:51:38;;;;;;;9.00;7.50;;;;;;;24.37;39.54;100249.02;104800;1310;83838;31
2022/05/14 14:57:26;;;;;;;10.70;7.60;;;;;;;24.26;39.55;100247.42;102444;1311;65677;31
2022/05/14 15:03:30;;;;;;;11.70;7.30;;;;;;;24.38;39.75;100246.52;104808;1308;74575;31
2022/05/14 15:09:37;;;;;;;12.00;7.60;;;;;;;24.37;39.53;100249.18;104706;1307;73677;-91
2022/05/14 15:13:19;;;;;;;10.60;7.60;;;;;;;24.33;39.60;100248.40;101118;1310;67329;-89
2022/05/14 15:16:22;;;;;;;8.60;6.70;;;;;;;24.38;39.58;100249.13;104548;1308;66229;-91
2022/05/14 15:25:02;;;;;;;8.50;6.90;;;;;;;24.34;39.58;100241.42;102732;1307;71655;-90
2022/05/14 15:30:46;;;;;;;8.10;7.20;;;;;;;24.43;39.55;100237.21;104573;1310;65583;-90
2022/05/14 15:33:43;;;;;;;9.70;7.40;;;;;;;24.42;39.58;100234.70;104361;1307;74205;31
2022/05/14 15:39:29;;;;;;;9.10;7.30;;;;;;;24.38;39.76;100239.91;104738;1309;73906;-90
2022/05/14 15:46:00;;;;;;;9.90;7.80;;;;;;;24.41;39.54;100249.62;104734;1310;66211;-91
2022/05/14 15:51:38;;;;;;;9.10;7.30;;;;;;;24.35;39.36;100254.27;104683;1308;83396;-90
2022/05/14 15:57:35;;;;;;;11.30;7.70;;;;;;;24.42;39.46;100270.86;104327;1307;66674;-91
2022/05/14 16:03:50;;;;;;;8.50;7.50;;;;;;;24.32;39.43;100294.57;104755;1310;75182;-92
2022/05/14 16:06:24;;;;;;;10.80;8.00;;;;;;;24.35;39.54;100300.49;104482;1310;83885;-91
2022/05/14 16:15:59;;;;;;;9.30;7.80;;;;;;;24.34;39.60;100312.42;104699;1307;67929;-91
2022/05/14 16:21:41;;;;;;;9.70;8.00;;;;;;;24.38;39.73;100319.79;104754;1310;83004;-92
2022/05/14 16:27:25;;;;;;;9.00;7.80;;;;;;;24.38;39.58;100321.08;104723;1307;66056;-90
2022/05/14 16:33:22;;;;;;;10.70;7.80;;;;;;;24.35;39.90;100322.90;104796;1310;75504;-91
2022/05/14 16:39:10;;;;;;;10.00;7.70;;;;;;;24.40;39.79;100319.45;104610;1310;74088;31
2022/05/14 16:48:07;;;;;;;8.50;7.30;;;;;;;24.39;40.34;100332.55;104771;1310;75045;31
2022/05/14 16:51:18;;;;;;;8.30;6.80;;;;;;;24.41;40.45;100329.54;104732;1308;83561;-90
2022/05/14 16:54:30;;;;;;;9.40;7.30;;;;;;;24.37;40.29;100329.77;104806;1307;73984;-90
2022/05/14 17:03:42;;;;;;;9.60;6.70;;;;;;;24.40;40.82;100330.34;104776;1309;75214;-91
2022/05/14 17:09:22;;;;;;;13.30;6.60;;;;;;;24.31;40.62;100330.27;102554;1308;72728;-91
2022/05/14 17:12:27;;;;;;;8.90;6.70;;;;;;;24.32;40.88;100326.62;104760;1310;66737;-91
2022/05/14 17:18:21;;;;;;;10.50;6.60;;;;;;;24.38;41.05;100335.55;104709;1309;75072;-91
2022/05/14 17:24:11;;;;;;;10.30;6.50;;;;;;;24.27;41.06;100341.14;104751;1310;73822;31
2022/05/14 17:32:56;;;;;;;10.40;6.10;;;;;;;24.36;41.12;100346.33;99250;1310;181435;31
2022/05/14 17:42:11;;;;;;;7.60;5.80;;;;;;;24.37;41.12;100343.25;104188;1310;66174;-91
2022/05/14 17:45:16;;;;;;;7.00;6.10;;;;;;;24.37;41.11;100345.70;103569;1307;66233;-91
2022/05/14 17:48:24;;;;;;;8.30;6.20;;;;;;;24.36;41.15;100347.83;101104;1310;74957;-91
2022/05/14 17:51:32;;;;;;;10.20;6.20;;;;;;;24.27;41.10;100350.19;104739;1310;83281;-91
2022/05/14 17:54:25;;;;;;;7.50;5.40;;;;;;;24.21;41.40;100355.27;104587;1310;71616;-91
2022/05/14 17:57:08;;;;;;;7.00;5.40;;;;;;;24.20;41.25;100356.20;104747;1310;66282;-89
2022/05/14 17:59:38;;;;;;;7.70;5.30;;;;;;;24.25;41.44;100359.48;104207;1311;67900;-88
2022/05/14 18:02:05;;;;;;;7.00;5.70;;;;;;;24.32;41.37;100365.42;104122;1319;75111;-88
2022/05/14 18:04:31;;;;;;;7.70;6.10;;;;;;;24.33;41.24;100367.57;104171;1313;73724;-88
2022/05/14 18:06:57;;;;;;;6.20;5.20;;;;;;;24.28;41.37;100372.60;104168;1313;66384;-88
2022/05/14 18:12:30;;;;;;;6.70;5.30;;;;;;;24.32;41.26;100379.66;104755;1310;65475;-91
2022/05/14 18:18:20;;;;;;;7.10;5.10;;;;;;;24.34;41.19;100383.96;104700;1309;83496;-92
2022/05/14 18:23:57;;;;;;;7.40;5.20;;;;;;;24.32;41.30;100394.52;104745;1310;66174;-90
2022/05/14 18:33:20;;;;;;;8.30;5.00;;;;;;;24.27;41.15;100410.65;90886;1307;80489;-90
2022/05/14 18:38:57;;;;;;;7.50;5.00;;;;;;;24.31;41.39;100412.13;104693;1308;65661;-90
2022/05/14 18:42:05;;;;;;;6.10;4.70;;;;;;;24.35;41.15;100423.73;104637;1310;67451;-91
2022/05/14 18:48:05;;;;;;;6.20;4.80;;;;;;;24.24;41.30;100425.60;104717;1310;83462;-91
2022/05/14 18:51:06;;;;;;;6.20;4.80;;;;;;;24.25;41.30;100431.66;104644;1309;73845;-91
2022/05/14 18:57:04;;;;;;;6.50;4.60;;;;;;;24.32;41.52;100437.06;104706;1310;66776;-90
2022/05/14 19:03:08;;;;;;;5.90;4.50;;;;;;;24.22;41.41;100435.85;104758;1307;83387;-91
2022/05/14 19:08:42;;;;;;;7.40;4.60;;;;;;;24.32;41.49;100437.81;104700;1308;66901;-91
2022/05/14 19:14:51;;;;;;;5.90;4.90;;;;;;;24.25;41.27;100442.66;104667;1310;75146;31
2022/05/14 19:17:54;;;;;;;5.90;5.10;;;;;;;24.23;41.47;100447.56;104662;1308;83388;-91
2022/05/14 19:23:49;;;;;;;6.50;5.30;;;;;;;24.32;41.28;100447.95;104526;1310;66479;-90
2022/05/14 19:29:38;;;;;;;7.30;5.30;;;;;;;24.22;41.28;100459.60;104712;1310;75276;-91
2022/05/14 19:35:22;;;;;;;7.30;5.00;;;;;;;24.29;41.16;100461.92;104527;1310;74639;-91
2022/05/14 19:41:05;;;;;;;6.50;5.40;;;;;;;24.24;41.05;100464.06;104605;1310;66155;-91
2022/05/14 19:46:43;;;;;;;6.80;5.40;;;;;;;24.23;41.28;100471.23;104624;1310;76290;-91
2022/05/14 19:52:51;;;;;;;7.40;5.20;;;;;;;24.29;41.15;100482.77;104526;1310;65815;-91
2022/05/14 19:58:24;;;;;;;7.40;4.70;;;;;;;24.22;41.25;100486.85;104735;1310;74788;-91
2022/05/14 20:04:15;;;;;;;;;;;;;;;;;;;;;
2022/05/14 20:09:41;;;;;;;6.10;4.70;;;;;;;24.25;41.02;100507.14;104745;1310;65546;-91
2022/05/14 20:15:16;;;;;;;7.20;5.00;;;;;;;24.25;41.20;100514.48;104658;1308;83393;-91
2022/05/14 20:20:49;;;;;;;9.20;5.00;;;;;;;24.30;41.27;100512.56;104711;1310;65887;-91
2022/05/14 20:26:29;;;;;;;6.40;4.90;;;;;;;24.19;41.12;100519.50;104791;1307;73285;-90
2022/05/14 20:35:43;;;;;;;7.80;4.80;;;;;;;24.28;41.32;100524.63;92419;1307;67467;-91
2022/05/14 20:47:20;;;;;;;7.90;4.90;;;;;;;24.30;41.53;100552.52;89817;1320;71554;-91
2022/05/14 20:50:23;;;;;;;7.20;4.80;;;;;;;24.28;41.57;100553.73;104699;1309;66204;-91
2022/05/14 20:56:17;;;;;;;6.60;4.70;;;;;;;24.14;41.60;100554.41;104742;1307;75148;-87
2022/05/14 21:07:35;;;;;;;5.70;4.40;;;;;;;24.14;41.87;100548.08;104707;1310;66165;-91
2022/05/14 21:13:15;;;;;;;4.80;4.10;;;;;;;24.22;41.96;100548.36;102933;1307;83295;-91
2022/05/14 21:18:45;;;;;;;5.90;4.50;;;;;;;24.20;41.90;100543.80;104696;1310;67469;-89
2022/05/14 21:21:11;;;;;;;6.60;4.40;;;;;;;24.15;41.83;100544.79;104448;1313;66203;-90
2022/05/14 21:23:40;;;;;;;5.90;4.20;;;;;;;24.17;41.79;100540.34;104258;1313;66668;-90
2022/05/14 21:26:23;;;;;;;4.70;3.70;;;;;;;24.21;41.84;100546.30;104002;1312;158107;-93
2022/05/14 21:29:06;;;;;;;6.30;3.70;;;;;;;24.25;41.76;100549.73;104210;1310;72208;-90
2022/05/14 21:31:50;;;;;;;7.50;4.40;;;;;;;24.23;41.56;100552.71;104273;1320;65444;-90
2022/05/14 21:42:54;;;;;;;10.20;4.00;;;;;;;24.21;41.28;100574.12;104423;1310;73881;-90
2022/05/14 21:45:24;;;;;;;6.50;4.00;;;;;;;24.19;41.13;100580.98;104211;1313;66574;-90
2022/05/14 21:47:53;;;;;;;;;;;;;;;24.12;41.20;100579.31;104208;1313;66101;-90
2022/05/14 21:50:23;;;;;;;6.30;4.10;;;;;;;24.09;41.32;100580.59;104324;1310;66304;-90
2022/05/14 21:53:09;;;;;;;6.00;4.10;;;;;;;24.14;41.20;100588.13;104480;1310;81746;-90
2022/05/14 21:56:08;;;;;;;5.50;3.90;;;;;;;24.17;41.33;100591.08;104324;1320;73233;31
2022/05/14 22:04:08;;;;;;;7.10;4.00;;;;;;;24.11;41.15;100596.80;101718;1310;176680;-90
2022/05/14 22:06:35;;;;;;;5.90;4.20;;;;;;;24.14;41.08;100595.89;104163;1316;73170;-90
2022/05/14 22:09:02;;;;;;;5.30;4.00;;;;;;;24.18;40.87;100594.34;104200;1313;73877;-90
2022/05/14 22:11:28;;;;;;;5.50;4.00;;;;;;;24.18;40.70;100594.05;104045;1313;66106;-90
2022/05/14 22:14:00;;;;;;;5.20;3.80;;;;;;;24.13;40.62;100597.56;104288;1310;65448;-89
2022/05/14 22:19:15;;;;;;;9.70;3.80;;;;;;;24.13;40.50;100605.77;104479;1312;82832;-90
2022/05/14 22:21:45;;;;;;;6.60;4.00;;;;;;;24.15;40.52;100605.87;104253;1313;65451;-90
2022/05/14 22:24:11;;;;;;;6.40;4.10;;;;;;;24.16;40.36;100605.95;104264;1313;66532;-90
2022/05/14 22:26:37;;;;;;;5.90;3.50;;;;;;;24.11;40.28;100599.06;104105;1313;66151;-89
2022/05/14 22:31:44;;;;;;;;;;;;;;;24.13;40.49;100601.75;104391;1310;81998;-89
2022/05/14 22:42:25;;;;;;;6.60;3.10;;;;;;;24.06;40.14;100589.15;104525;1310;73299;-90
2022/05/14 22:44:58;;;;;;;5.60;3.80;;;;;;;24.08;39.90;100592.77;104233;1313;73064;-89
2022/05/14 22:50:13;;;;;;;6.90;3.60;;;;;;;24.11;39.63;100599.02;104181;1310;66340;-90
2022/05/14 22:52:43;;;;;;;5.40;3.10;;;;;;;24.05;39.58;100594.56;104490;1310;66114;-89
2022/05/14 22:55:10;;;;;;;6.60;3.40;;;;;;;24.01;39.60;100588.58;104281;1319;78053;-90
2022/05/14 22:57:37;;;;;;;7.50;3.40;;;;;;;24.05;39.61;100591.22;104495;1310;73174;-90
2022/05/14 23:00:04;;;;;;;4.90;3.10;;;;;;;24.08;39.48;100593.44;104248;1316;65513;-89
2022/05/14 23:02:30;;;;;;;6.30;3.30;;;;;;;24.10;39.31;100594.50;104221;1313;65943;-90
2022/05/14 23:04:56;;;;;;;5.70;3.10;;;;;;;24.09;39.17;100591.79;104115;1316;66274;-89
2022/05/14 23:10:27;;;;;;;5.50;3.30;;;;;;;24.03;39.13;100593.65;104529;1313;83942;-90
2022/05/14 23:15:50;;;;;;;6.00;3.00;;;;;;;24.07;38.82;100601.41;104378;1310;65476;-90
2022/05/14 23:18:33;;;;;;;6.30;3.30;;;;;;;24.05;38.90;100604.73;104465;1310;65411;-90
2022/05/14 23:21:00;;;;;;;4.50;2.90;;;;;;;23.99;38.89;100605.05;104432;1310;74406;-90
2022/05/14 23:23:31;;;;;;;5.90;3.10;;;;;;;24.00;39.01;100610.80;104341;1313;72966;-90
2022/05/14 23:25:57;;;;;;;4.30;3.20;;;;;;;24.05;38.94;100610.81;104577;1310;73423;-90
2022/05/14 23:28:30;;;;;;;6.90;3.30;;;;;;;24.06;38.85;100616.50;104338;1310;67507;-87
2022/05/14 23:36:35;;;;;;;4.70;2.90;;;;;;;24.06;38.47;100626.73;104464;1310;83562;-90
2022/05/14 23:41:35;;;;;;;4.20;2.80;;;;;;;24.06;38.64;100634.08;104512;1310;65840;-90
2022/05/14 23:46:57;;;;;;;4.50;3.00;;;;;;;24.02;38.62;100626.60;104477;1310;154653;-92
2022/05/14 23:49:27;;;;;;;3.50;2.90;;;;;;;24.01;38.49;100627.34;104104;1310;82004;-90
2022/05/14 23:51:54;;;;;;;5.40;3.40;;;;;;;23.99;38.28;100620.16;104245;1321;72956;-89
